Time;durP1;ratioP1;P1;durP2;ratioP2;P2;SDS_P1;SDS_P2;PMS_P1;PMS_P2;Temp;Humidity;BMP_temperature;BMP_pressure;BME280_temperature;BME280_humidity;BME280_pressure;Samples;Min_cycle;Max_cycle;Signal;HPM_P1;HPM_P2
2022/02/24 00:00:16;;;;;;;6.70;3.53;;;7.00;99.90;;;;;;5023115;28;20280;-84
2022/02/24 00:02:44;;;;;;;7.63;3.25;;;6.90;99.90;;;;;;5026143;28;20267;-84
2022/02/24 00:05:11;;;;;;;7.85;3.90;;;6.80;99.90;;;;;;5027340;28;20250;-84
2022/02/24 00:07:39;;;;;;;5.13;3.30;;;6.80;99.90;;;;;;5034502;28;20238;-84
2022/02/24 00:10:08;;;;;;;10.38;3.50;;;6.70;99.90;;;;;;5021648;28;20207;-85
2022/02/24 00:12:35;;;;;;;5.45;2.90;;;6.80;99.90;;;;;;5024576;28;20207;-85
2022/02/24 00:15:04;;;;;;;6.03;4.03;;;6.70;99.90;;;;;;5025488;28;20242;-85
2022/02/24 00:17:32;;;;;;;5.78;2.90;;;6.80;99.90;;;;;;5025706;28;20207;-84
2022/02/24 00:20:02;;;;;;;4.80;3.00;;;6.90;99.90;;;;;;5025459;28;20683;-86
2022/02/24 00:22:31;;;;;;;6.63;2.90;;;6.90;99.90;;;;;;5026302;28;20238;-84
2022/02/24 00:24:58;;;;;;;6.72;3.47;;;6.80;99.90;;;;;;5026304;28;20285;-84
2022/02/24 00:27:25;;;;;;;8.82;3.10;;;6.80;99.90;;;;;;5023878;28;20211;-84
2022/02/24 00:29:52;;;;;;;4.68;2.97;;;6.80;99.90;;;;;;5024491;28;20312;-84
2022/02/24 00:32:18;;;;;;;5.90;2.70;;;6.90;99.90;;;;;;5025897;28;20214;-86
2022/02/24 00:34:47;;;;;;;6.95;3.50;;;6.90;99.90;;;;;;5024777;28;20230;-84
2022/02/24 00:37:15;;;;;;;5.40;2.80;;;6.70;99.90;;;;;;5024468;28;20206;-85
2022/02/24 00:39:43;;;;;;;7.43;3.15;;;6.80;99.90;;;;;;5024866;28;20237;-85
2022/02/24 00:42:10;;;;;;;6.05;2.90;;;6.60;99.90;;;;;;5025468;28;20286;-85
2022/02/24 00:44:37;;;;;;;6.15;3.20;;;7.00;99.90;;;;;;5028427;28;20282;-86
2022/02/24 00:47:04;;;;;;;6.22;3.28;;;7.00;99.90;;;;;;5029150;28;20254;-86
2022/02/24 00:49:31;;;;;;;5.10;3.00;;;7.20;99.90;;;;;;5027776;28;20220;-86
2022/02/24 00:52:00;;;;;;;4.60;2.85;;;7.20;99.90;;;;;;5026504;28;20534;-86
2022/02/24 00:54:27;;;;;;;5.38;3.10;;;7.30;99.90;;;;;;5025433;28;20281;-86
2022/02/24 00:56:53;;;;;;;5.55;3.00;;;7.40;99.90;;;;;;5024888;28;20290;-85
2022/02/24 00:59:20;;;;;;;4.70;2.55;;;7.40;99.90;;;;;;5025361;28;20648;-85
2022/02/24 01:01:48;;;;;;;6.25;2.80;;;7.60;99.90;;;;;;5024529;28;20248;-86
2022/02/24 01:04:16;;;;;;;5.95;3.05;;;7.60;99.90;;;;;;5024169;28;20741;-86
2022/02/24 01:06:43;;;;;;;4.80;2.90;;;7.50;99.90;;;;;;5024852;28;20230;-83
2022/02/24 01:09:11;;;;;;;6.65;3.00;;;7.50;99.90;;;;;;5024346;28;20212;-84
2022/02/24 01:11:38;;;;;;;6.45;3.00;;;7.60;99.90;;;;;;5024686;28;20203;-84
2022/02/24 01:14:05;;;;;;;5.40;3.17;;;7.60;99.90;;;;;;5030978;28;20285;-85
2022/02/24 01:16:32;;;;;;;6.45;2.85;;;7.70;99.90;;;;;;5034720;28;20296;-85
2022/02/24 01:18:58;;;;;;;6.85;2.83;;;7.70;99.90;;;;;;5040005;28;20280;-85
2022/02/24 01:21:25;;;;;;;5.15;3.00;;;7.70;99.90;;;;;;5034048;28;20297;-85
2022/02/24 01:23:52;;;;;;;5.43;2.38;;;7.60;99.90;;;;;;5025939;28;20302;-85
2022/02/24 01:26:21;;;;;;;5.10;2.95;;;7.60;99.90;;;;;;5029135;28;20231;-85
2022/02/24 01:28:47;;;;;;;4.78;3.05;;;7.70;99.90;;;;;;5040046;28;20199;-85
2022/02/24 01:31:14;;;;;;;5.25;2.55;;;7.70;99.90;;;;;;5031758;28;20293;-84
2022/02/24 01:33:41;;;;;;;6.57;3.00;;;7.70;99.90;;;;;;5027512;28;20217;-85
2022/02/24 01:36:08;;;;;;;5.07;2.83;;;7.80;99.90;;;;;;5029513;28;20242;-86
2022/02/24 01:38:35;;;;;;;4.68;3.03;;;7.80;99.90;;;;;;5025609;28;20203;-85
2022/02/24 01:41:02;;;;;;;4.90;3.13;;;7.80;99.90;;;;;;5023842;28;20215;-85
2022/02/24 01:43:31;;;;;;;4.10;2.50;;;7.90;99.90;;;;;;5024189;28;20210;-85
2022/02/24 01:45:57;;;;;;;8.80;2.90;;;7.90;99.90;;;;;;5024820;28;20254;-84
2022/02/24 01:48:26;;;;;;;6.25;3.47;;;7.90;99.90;;;;;;5032223;28;20206;-85
2022/02/24 01:50:53;;;;;;;8.73;3.28;;;8.00;99.90;;;;;;5037127;28;20213;-85
2022/02/24 01:53:20;;;;;;;7.65;3.10;;;8.10;99.90;;;;;;5026115;28;20246;-85
2022/02/24 01:55:47;;;;;;;6.95;3.45;;;8.00;99.90;;;;;;5025969;28;20680;-85
2022/02/24 01:58:16;;;;;;;7.85;3.20;;;8.00;99.90;;;;;;5026059;28;20723;-85
2022/02/24 02:00:45;;;;;;;4.88;2.70;;;8.00;99.90;;;;;;5024278;28;20199;-85
2022/02/24 02:03:11;;;;;;;5.65;2.97;;;7.90;99.90;;;;;;5025257;28;20214;-85
2022/02/24 02:05:38;;;;;;;6.30;3.05;;;7.90;99.90;;;;;;5024684;28;20223;-85
2022/02/24 02:08:06;;;;;;;6.05;2.58;;;7.90;99.90;;;;;;5028792;28;20588;-85
2022/02/24 02:10:33;;;;;;;5.43;3.25;;;7.80;99.90;;;;;;5024338;28;20269;-85
2022/02/24 02:13:00;;;;;;;4.47;2.20;;;7.90;99.90;;;;;;5024514;28;20295;-85
2022/02/24 02:15:27;;;;;;;4.53;2.47;;;7.50;99.90;;;;;;5023930;28;20321;-85
2022/02/24 02:17:55;;;;;;;7.15;2.85;;;7.70;99.90;;;;;;5023904;28;20306;-85
2022/02/24 02:20:22;;;;;;;5.35;2.60;;;7.80;99.90;;;;;;5023994;28;20219;-85
2022/02/24 02:22:52;;;;;;;6.53;2.70;;;7.70;99.90;;;;;;5025288;28;20218;-85
2022/02/24 02:25:20;;;;;;;6.65;3.25;;;7.70;99.90;;;;;;5024918;28;20233;-85
2022/02/24 02:27:49;;;;;;;5.25;2.50;;;7.70;99.90;;;;;;5024072;28;20289;-85
2022/02/24 02:30:17;;;;;;;5.55;2.78;;;7.60;99.90;;;;;;5023846;28;20218;-85
2022/02/24 02:32:44;;;;;;;6.22;2.92;;;7.70;99.90;;;;;;5022598;28;20747;-85
2022/02/24 02:35:11;;;;;;;4.95;2.75;;;7.60;99.90;;;;;;5029083;28;20234;-85
2022/02/24 02:37:38;;;;;;;5.60;2.53;;;7.30;99.90;;;;;;5025092;28;20226;-84
2022/02/24 02:40:10;;;;;;;5.10;2.53;;;7.50;99.90;;;;;;5026692;28;20285;-85
2022/02/24 02:42:37;;;;;;;4.60;2.83;;;7.60;99.90;;;;;;5024357;28;20215;-85
2022/02/24 02:45:05;;;;;;;4.68;2.38;;;7.50;99.90;;;;;;5044224;23;20264;-87
2022/02/24 02:47:32;;;;;;;4.00;2.35;;;7.60;99.90;;;;;;5005791;28;20279;-87
2022/02/24 02:49:59;;;;;;;8.07;2.70;;;7.70;99.90;;;;;;5005929;28;20234;-87
2022/02/24 02:52:26;;;;;;;4.38;2.72;;;7.70;99.90;;;;;;5007446;28;20253;-87
2022/02/24 02:55:00;;;;;;;4.55;2.35;;;7.70;99.90;;;;;;5005477;28;20282;-86
2022/02/24 02:57:28;;;;;;;4.75;2.78;;;7.70;99.90;;;;;;4985794;28;20289;-88
2022/02/24 02:59:55;;;;;;;6.53;2.58;;;7.70;99.90;;;;;;4986168;28;20212;-87
2022/02/24 03:02:21;;;;;;;5.03;2.60;;;7.60;99.90;;;;;;4985301;28;20271;-88
2022/02/24 03:04:50;;;;;;;6.30;2.70;;;7.60;99.90;;;;;;4986785;28;20215;-87
2022/02/24 03:07:18;;;;;;;6.75;2.75;;;7.70;99.90;;;;;;4986338;28;20266;-88
2022/02/24 03:09:45;;;;;;;4.43;2.30;;;7.70;99.90;;;;;;4986405;28;20208;-88
2022/02/24 03:12:12;;;;;;;5.38;2.45;;;7.60;99.90;;;;;;4985099;28;20216;-88
2022/02/24 03:14:41;;;;;;;5.35;2.75;;;7.60;99.90;;;;;;4985714;28;20642;-87
2022/02/24 03:17:09;;;;;;;9.30;3.90;;;7.70;99.90;;;;;;4986793;28;20295;-87
2022/02/24 03:19:36;;;;;;;6.13;3.00;;;7.60;99.90;;;;;;4986754;28;20239;-88
2022/02/24 03:22:03;;;;;;;4.47;2.55;;;7.60;99.90;;;;;;4985908;28;20208;-89
2022/02/24 03:24:30;;;;;;;4.20;2.20;;;7.60;99.90;;;;;;4986037;28;20673;-89
2022/02/24 03:26:56;;;;;;;8.90;2.65;;;7.30;99.90;;;;;;4991106;28;20331;-86
2022/02/24 03:29:23;;;;;;;6.53;2.40;;;7.80;99.90;;;;;;4989996;28;20217;-88
2022/02/24 03:31:51;;;;;;;5.57;3.05;;;7.80;99.90;;;;;;4988144;28;20220;-87
2022/02/24 03:34:18;;;;;;;5.30;2.70;;;7.80;99.90;;;;;;4987634;28;20240;-86
2022/02/24 03:36:45;;;;;;;3.92;2.42;;;7.70;99.90;;;;;;4993074;28;20248;-88
2022/02/24 03:39:12;;;;;;;6.60;2.80;;;8.00;99.90;;;;;;4987816;28;20289;-87
2022/02/24 03:41:39;;;;;;;5.88;2.80;;;8.10;99.90;;;;;;4986554;28;20216;-87
2022/02/24 03:44:06;;;;;;;6.13;3.55;;;8.00;99.90;;;;;;4986309;28;20246;-88
2022/02/24 03:46:33;;;;;;;5.05;3.22;;;8.10;99.90;;;;;;4989456;28;20672;-87
2022/02/24 03:49:01;;;;;;;5.07;3.00;;;8.00;99.90;;;;;;5003002;28;20191;-84
2022/02/24 03:51:28;;;;;;;4.75;2.70;;;8.00;99.90;;;;;;5003241;28;20191;-84
2022/02/24 03:53:55;;;;;;;6.25;3.00;;;8.00;99.90;;;;;;5003025;28;20232;-85
2022/02/24 03:56:21;;;;;;;6.72;2.60;;;8.00;99.90;;;;;;5002332;28;20287;-85
2022/02/24 03:58:48;;;;;;;6.45;2.92;;;8.00;99.90;;;;;;4995139;28;20247;-87
2022/02/24 04:01:15;;;;;;;5.85;3.20;;;7.90;99.90;;;;;;4991339;28;20232;-86
2022/02/24 04:03:42;;;;;;;5.50;2.88;;;7.70;99.90;;;;;;4991836;28;20686;-87
2022/02/24 04:06:10;;;;;;;7.55;3.55;;;8.10;99.90;;;;;;4991592;28;20248;-87
2022/02/24 04:08:37;;;;;;;5.22;2.63;;;8.10;99.90;;;;;;4993394;28;20207;-88
2022/02/24 04:11:04;;;;;;;5.35;2.50;;;8.10;99.90;;;;;;4990337;28;20720;-88
2022/02/24 04:13:31;;;;;;;6.32;3.08;;;8.10;99.90;;;;;;4989858;28;20664;-87
2022/02/24 04:15:58;;;;;;;4.95;2.80;;;8.10;99.90;;;;;;4989150;28;20575;-88
2022/02/24 04:18:24;;;;;;;5.05;2.50;;;8.10;99.90;;;;;;4989090;28;20228;-88
2022/02/24 04:20:52;;;;;;;5.32;3.15;;;8.20;99.90;;;;;;4990677;28;20216;-88
2022/02/24 04:23:20;;;;;;;5.43;2.85;;;8.10;99.90;;;;;;4991598;28;20219;-88
2022/02/24 04:25:47;;;;;;;6.78;3.00;;;8.10;99.90;;;;;;4989390;28;20274;-88
2022/02/24 04:28:14;;;;;;;4.25;2.85;;;8.00;99.90;;;;;;4989850;28;20288;-87
2022/02/24 04:30:41;;;;;;;6.45;2.90;;;8.10;99.90;;;;;;4986989;28;20227;-87
2022/02/24 04:33:08;;;;;;;6.63;3.08;;;8.10;99.90;;;;;;4987422;28;20586;-87
2022/02/24 04:35:35;;;;;;;5.68;3.05;;;8.10;99.90;;;;;;4985572;28;20310;-87
2022/02/24 04:38:02;;;;;;;7.18;3.13;;;8.00;99.90;;;;;;4989086;28;20318;-87
2022/02/24 04:40:30;;;;;;;5.55;2.50;;;8.00;99.90;;;;;;4989665;28;20232;-88
2022/02/24 04:42:57;;;;;;;6.55;3.33;;;7.90;99.90;;;;;;4989266;28;20291;-86
2022/02/24 04:45:24;;;;;;;6.15;3.67;;;7.90;99.90;;;;;;4988679;28;20244;-87
2022/02/24 04:47:51;;;;;;;4.82;2.90;;;7.90;99.90;;;;;;4989830;28;20208;-87
2022/02/24 04:50:18;;;;;;;5.15;2.90;;;7.90;99.90;;;;;;4988745;28;20266;-87
2022/02/24 04:52:44;;;;;;;6.68;2.53;;;7.80;99.90;;;;;;4988832;28;20276;-87
2022/02/24 04:55:12;;;;;;;5.55;3.10;;;7.90;99.90;;;;;;4990708;28;20215;-87
2022/02/24 04:57:40;;;;;;;4.30;2.30;;;7.80;99.90;;;;;;4992423;28;20231;-88
2022/02/24 05:00:10;;;;;;;5.60;2.40;;;7.90;99.90;;;;;;4995695;28;20215;-87
2022/02/24 05:02:37;;;;;;;9.13;3.42;;;7.90;99.90;;;;;;4993253;28;20216;-87
2022/02/24 05:05:05;;;;;;;5.70;3.03;;;7.90;99.90;;;;;;4993367;28;20276;-89
2022/02/24 05:07:32;;;;;;;6.00;2.85;;;8.00;99.90;;;;;;4988522;28;20295;-87
2022/02/24 05:10:00;;;;;;;4.73;2.60;;;8.00;99.90;;;;;;4988644;28;20283;-88
2022/02/24 05:12:27;;;;;;;4.68;2.60;;;8.10;99.90;;;;;;4992193;28;20992;-88
2022/02/24 05:14:55;;;;;;;6.38;2.83;;;7.80;99.90;;;;;;4992863;28;20235;-85
2022/02/24 05:17:22;;;;;;;4.32;2.35;;;8.20;99.90;;;;;;4997623;28;20269;-86
2022/02/24 05:19:49;;;;;;;6.32;3.03;;;8.10;99.90;;;;;;4996453;28;20235;-89
2022/02/24 05:22:16;;;;;;;6.95;3.10;;;8.10;99.90;;;;;;4989492;28;20433;-89
2022/02/24 05:24:43;;;;;;;6.15;2.88;;;8.00;99.90;;;;;;4988434;28;20222;-89
2022/02/24 05:27:09;;;;;;;5.38;3.30;;;8.00;99.90;;;;;;4987825;28;20246;-89
2022/02/24 05:29:36;;;;;;;6.18;2.72;;;7.90;99.90;;;;;;4987214;28;20284;-88
2022/02/24 05:32:06;;;;;;;5.40;3.07;;;7.90;99.90;;;;;;4988233;28;20238;-88
2022/02/24 05:34:32;;;;;;;5.03;3.20;;;7.80;99.90;;;;;;4989969;28;20490;-88
2022/02/24 05:36:59;;;;;;;6.00;3.03;;;7.80;99.90;;;;;;4990722;28;20262;-88
2022/02/24 05:39:26;;;;;;;6.15;2.92;;;7.60;99.90;;;;;;4991400;28;20468;-88
2022/02/24 05:41:53;;;;;;;8.90;3.28;;;7.80;99.90;;;;;;4990810;28;20596;-89
2022/02/24 05:44:20;;;;;;;6.30;3.22;;;7.50;99.90;;;;;;4990653;28;20234;-88
2022/02/24 05:46:47;;;;;;;6.30;3.65;;;7.60;99.90;;;;;;4988709;28;20383;-88
2022/02/24 05:49:16;;;;;;;8.43;3.53;;;7.80;99.90;;;;;;4989216;28;20236;-88
2022/02/24 05:51:44;;;;;;;7.95;4.10;;;7.70;99.90;;;;;;4997507;28;20188;-88
2022/02/24 05:54:11;;;;;;;6.93;3.13;;;7.70;99.90;;;;;;4996619;28;20266;-87
2022/02/24 05:56:38;;;;;;;6.18;3.45;;;7.70;99.90;;;;;;4993810;28;20224;-87
2022/02/24 05:59:06;;;;;;;7.70;3.72;;;7.80;99.90;;;;;;4993530;28;20243;-87
2022/02/24 06:01:33;;;;;;;5.55;3.85;;;7.50;99.90;;;;;;4994926;28;20219;-87
2022/02/24 06:03:59;;;;;;;11.63;4.05;;;7.50;99.90;;;;;;4995128;28;20232;-88
2022/02/24 06:06:28;;;;;;;6.10;3.50;;;7.90;99.90;;;;;;4995933;28;20236;-87
2022/02/24 06:08:55;;;;;;;8.05;4.45;;;7.90;99.90;;;;;;4993291;28;20520;-87
2022/02/24 06:11:22;;;;;;;6.28;4.30;;;7.70;99.90;;;;;;4994913;28;20275;-85
2022/02/24 06:13:48;;;;;;;8.30;4.65;;;7.90;99.90;;;;;;4994364;28;20226;-87
2022/02/24 06:16:15;;;;;;;9.57;4.88;;;7.90;99.90;;;;;;4994384;28;20239;-88
2022/02/24 06:18:43;;;;;;;8.68;4.15;;;7.90;99.90;;;;;;4994944;28;20255;-86
2022/02/24 06:21:09;;;;;;;6.50;4.35;;;7.90;99.90;;;;;;4995698;28;20273;-86
2022/02/24 06:23:38;;;;;;;7.13;4.43;;;7.80;99.90;;;;;;4994945;28;20231;-88
2022/02/24 06:26:04;;;;;;;8.98;5.28;;;7.80;99.90;;;;;;4989144;28;20263;-88
2022/02/24 06:28:32;;;;;;;8.85;4.82;;;7.80;99.90;;;;;;4988810;28;20291;-88
2022/02/24 06:30:59;;;;;;;8.68;4.53;;;7.70;99.90;;;;;;4988711;28;20263;-88
2022/02/24 06:33:26;;;;;;;7.53;4.82;;;7.80;99.90;;;;;;4988120;28;20291;-87
2022/02/24 06:35:52;;;;;;;7.93;4.88;;;7.70;99.90;;;;;;4995963;28;20235;-86
2022/02/24 06:38:19;;;;;;;10.35;5.75;;;7.70;99.90;;;;;;4998765;28;20231;-88
2022/02/24 06:40:48;;;;;;;8.60;4.95;;;7.40;99.90;;;;;;4992371;28;20218;-89
2022/02/24 06:43:14;;;;;;;8.98;5.50;;;7.90;99.90;;;;;;4998919;28;20254;-88
2022/02/24 06:45:41;;;;;;;9.63;5.88;;;7.80;99.90;;;;;;4993100;28;20239;-88
2022/02/24 06:48:08;;;;;;;11.07;5.63;;;7.80;99.90;;;;;;4990045;28;20218;-88
2022/02/24 06:50:35;;;;;;;8.10;5.05;;;7.80;99.90;;;;;;4989080;28;20239;-88
2022/02/24 06:53:02;;;;;;;8.55;5.78;;;7.80;99.90;;;;;;4988334;28;20243;-88
2022/02/24 06:55:29;;;;;;;10.52;5.85;;;7.90;99.90;;;;;;4988504;28;20228;-87
2022/02/24 06:57:57;;;;;;;10.15;6.28;;;7.80;99.90;;;;;;4988317;28;20325;-89
2022/02/24 07:00:25;;;;;;;8.35;5.43;;;7.80;99.90;;;;;;4987943;28;20210;-89
2022/02/24 07:02:52;;;;;;;8.77;5.45;;;7.80;99.90;;;;;;4986276;28;20736;-88
2022/02/24 07:05:20;;;;;;;12.55;6.13;;;7.80;99.90;;;;;;4987405;28;20232;-87
2022/02/24 07:07:47;;;;;;;9.85;5.28;;;7.80;99.90;;;;;;4986676;28;20271;-89
2022/02/24 07:10:14;;;;;;;8.57;6.10;;;7.80;99.90;;;;;;4985657;28;20669;-87
2022/02/24 07:12:42;;;;;;;10.45;6.57;;;7.90;99.90;;;;;;4986091;28;20247;-88
2022/02/24 07:15:13;;;;;;;11.70;5.93;;;7.90;99.90;;;;;;4988133;28;20211;-85
2022/02/24 07:17:46;;;;;;;9.23;5.55;;;7.90;99.90;;;;;;4988332;28;20243;-88
2022/02/24 07:20:15;;;;;;;8.35;5.90;;;8.00;99.90;;;;;;4986773;28;20220;-87
2022/02/24 07:22:43;;;;;;;9.20;5.93;;;8.00;99.90;;;;;;4987501;28;20272;-88
2022/02/24 07:25:12;;;;;;;9.80;5.90;;;8.00;99.90;;;;;;4989553;28;20216;-86
2022/02/24 07:27:39;;;;;;;9.02;6.07;;;7.90;99.90;;;;;;4993094;28;20208;-87
2022/02/24 07:30:07;;;;;;;9.80;6.15;;;7.90;99.90;;;;;;4985250;28;20213;-88
2022/02/24 07:32:35;;;;;;;12.07;6.47;;;8.00;99.90;;;;;;4987083;28;20264;-89
2022/02/24 07:35:04;;;;;;;9.70;6.05;;;8.00;99.90;;;;;;4986535;28;20208;-87
2022/02/24 07:37:30;;;;;;;9.18;5.85;;;8.10;99.90;;;;;;4986139;28;20231;-87
2022/02/24 07:39:57;;;;;;;11.40;5.60;;;8.20;99.90;;;;;;4986531;28;20264;-88
2022/02/24 07:42:28;;;;;;;11.30;6.43;;;8.30;99.90;;;;;;4987111;28;20212;-88
2022/02/24 07:44:55;;;;;;;9.85;6.63;;;8.30;99.90;;;;;;4992659;28;20243;-87
2022/02/24 07:47:22;;;;;;;13.15;6.72;;;8.40;99.90;;;;;;4988512;28;20232;-87
2022/02/24 07:49:50;;;;;;;9.55;5.50;;;8.40;99.90;;;;;;4987084;28;20303;-87
2022/02/24 07:52:18;;;;;;;10.00;5.80;;;8.40;99.90;;;;;;4986720;28;20208;-87
2022/02/24 07:54:45;;;;;;;11.70;6.32;;;8.50;99.90;;;;;;4986295;28;20491;-87
2022/02/24 07:57:12;;;;;;;11.02;5.57;;;8.60;99.90;;;;;;4986209;28;20340;-87
2022/02/24 07:59:39;;;;;;;11.25;6.40;;;8.60;99.90;;;;;;4989504;28;20276;-87
2022/02/24 08:02:06;;;;;;;11.63;6.40;;;8.70;99.90;;;;;;4987361;28;20267;-86
2022/02/24 08:04:33;;;;;;;10.70;6.37;;;8.80;99.90;;;;;;4987489;28;20292;-86
2022/02/24 08:07:01;;;;;;;9.02;5.28;;;8.90;99.90;;;;;;4987268;28;20868;-86
2022/02/24 08:09:28;;;;;;;9.95;5.47;;;8.90;99.90;;;;;;4986599;28;20227;-88
2022/02/24 08:14:40;;;;;;;9.63;5.78;;;9.10;99.90;;;;;;4988733;28;20220;-86
2022/02/24 08:17:08;;;;;;;13.03;5.90;;;9.10;99.90;;;;;;4991628;28;20240;-87
2022/02/24 08:19:35;;;;;;;7.65;5.35;;;9.20;99.90;;;;;;4992359;28;20452;-86
2022/02/24 08:22:06;;;;;;;9.15;5.20;;;9.20;99.90;;;;;;4990731;28;20212;-86
2022/02/24 08:24:33;;;;;;;9.95;6.30;;;9.20;99.90;;;;;;4989776;28;20213;-86
2022/02/24 08:27:00;;;;;;;11.17;5.03;;;9.30;99.90;;;;;;4987757;28;20229;-87
2022/02/24 08:29:29;;;;;;;7.30;5.43;;;9.40;99.90;;;;;;4989271;28;20448;-87
2022/02/24 08:31:56;;;;;;;8.43;5.77;;;9.50;99.90;;;;;;4991107;28;20448;-87
2022/02/24 08:34:23;;;;;;;10.23;5.93;;;9.50;99.90;;;;;;4992170;28;20452;-86
2022/02/24 08:36:51;;;;;;;7.33;5.00;;;9.70;99.90;;;;;;4992855;28;20534;-87
2022/02/24 08:39:20;;;;;;;8.20;4.60;;;9.80;99.90;;;;;;4990936;28;20523;-87
2022/02/24 08:41:47;;;;;;;13.03;5.10;;;9.80;99.90;;;;;;4991625;28;20537;-86
2022/02/24 08:44:15;;;;;;;9.70;4.57;;;9.90;99.90;;;;;;4992429;28;21001;-86
2022/02/24 08:46:43;;;;;;;7.43;5.07;;;10.00;99.90;;;;;;5027252;23;20497;-87
2022/02/24 08:49:09;;;;;;;18.60;5.43;;;10.10;99.90;;;;;;5040540;28;20460;-87
2022/02/24 08:51:36;;;;;;;8.87;4.63;;;10.10;99.90;;;;;;5041093;28;21004;-88
2022/02/24 08:54:03;;;;;;;6.77;4.73;;;10.10;99.90;;;;;;5042604;28;20472;-87
2022/02/24 08:56:32;;;;;;;6.00;4.30;;;10.10;99.90;;;;;;5041734;28;20489;-88
2022/02/24 08:58:59;;;;;;;9.47;4.47;;;10.20;99.90;;;;;;5041620;28;20489;-88
2022/02/24 09:01:26;;;;;;;7.50;4.30;;;10.30;99.90;;;;;;5050599;28;20429;-88
2022/02/24 09:03:53;;;;;;;6.80;4.00;;;10.30;99.90;;;;;;5053071;28;20454;-88
2022/02/24 09:06:21;;;;;;;7.67;4.70;;;10.40;99.90;;;;;;5056489;28;20467;-88
2022/02/24 09:08:48;;;;;;;7.57;4.23;;;10.50;99.90;;;;;;5047474;28;20449;-88
2022/02/24 09:11:17;;;;;;;5.23;3.83;;;10.60;99.90;;;;;;5043734;28;20430;-88
2022/02/24 09:13:45;;;;;;;6.70;4.20;;;10.70;99.90;;;;;;5041966;28;20453;-88
2022/02/24 09:16:12;;;;;;;6.10;3.57;;;10.80;99.90;;;;;;5050412;28;20504;-88
2022/02/24 09:18:39;;;;;;;9.50;4.57;;;11.00;99.90;;;;;;5044231;28;20485;-88
2022/02/24 09:23:48;;;;;;;5.70;4.00;;;11.40;99.90;;;;;;5042611;28;20432;-88
2022/02/24 09:26:15;;;;;;;8.13;3.70;;;11.50;99.90;;;;;;5043864;28;20472;-89
2022/02/24 09:28:42;;;;;;;9.37;4.10;;;11.60;99.90;;;;;;5039889;28;20453;-89
2022/02/24 09:31:13;;;;;;;7.67;3.07;;;11.60;99.90;;;;;;5043519;28;20567;-88
2022/02/24 09:33:40;;;;;;;5.87;3.00;;;11.50;99.90;;;;;;5041883;28;20434;-88
2022/02/24 09:36:07;;;;;;;5.03;3.33;;;11.60;99.90;;;;;;5044858;28;20505;-88
2022/02/24 09:38:34;;;;;;;6.30;3.70;;;11.70;99.90;;;;;;5040069;28;20900;-88
2022/02/24 09:41:01;;;;;;;5.60;3.20;;;11.70;99.90;;;;;;5039684;28;20878;-88
2022/02/24 09:43:31;;;;;;;8.20;3.53;;;11.70;99.90;;;;;;5044858;28;20461;-89
2022/02/24 09:46:00;;;;;;;8.13;3.70;;;11.90;99.90;;;;;;5049301;28;20506;-89
2022/02/24 09:48:31;;;;;;;5.17;2.70;;;12.00;99.90;;;;;;5053959;28;20417;-89
2022/02/24 09:51:00;;;;;;;6.90;2.93;;;12.10;99.90;;;;;;5038563;28;20494;-89
2022/02/24 09:53:30;;;;;;;5.50;3.03;;;12.10;99.90;;;;;;5040344;28;20563;-89
2022/02/24 09:55:58;;;;;;;7.23;3.13;;;12.20;99.90;;;;;;5038386;28;20444;-89
2022/02/24 09:58:25;;;;;;;4.03;2.37;;;12.30;99.90;;;;;;5039832;28;20813;-89
2022/02/24 10:00:53;;;;;;;5.53;2.50;;;12.40;99.90;;;;;;5043343;28;20457;-87
2022/02/24 10:03:33;;;;;;;5.00;2.70;;;12.30;99.90;;;;;;5041991;28;20476;-89
2022/02/24 10:06:02;;;;;;;6.57;2.93;;;12.40;99.90;;;;;;5041961;28;20476;-88
2022/02/24 10:08:31;;;;;;;6.90;3.27;;;12.50;99.90;;;;;;5042081;28;20456;-88
2022/02/24 10:11:00;;;;;;;5.83;3.20;;;12.70;99.90;;;;;;5042887;28;20449;-88
2022/02/24 10:13:28;;;;;;;7.67;2.53;;;12.90;99.90;;;;;;5038662;28;20454;-89
2022/02/24 10:15:56;;;;;;;5.33;2.17;;;13.20;99.90;;;;;;5047891;28;20458;-88
2022/02/24 10:18:25;;;;;;;4.77;2.37;;;13.30;99.90;;;;;;5057185;28;20496;-88
2022/02/24 10:21:00;;;;;;;5.00;2.00;;;13.20;99.90;;;;;;5055420;28;20476;-89
2022/02/24 10:23:33;;;;;;;9.10;2.07;;;13.20;99.90;;;;;;5055769;28;20438;-88
2022/02/24 10:26:03;;;;;;;6.37;2.23;;;13.20;99.90;;;;;;5049350;28;20543;-88
2022/02/24 10:28:37;;;;;;;6.80;2.37;;;13.30;99.90;;;;;;5040465;28;20868;-88
2022/02/24 10:31:09;;;;;;;5.00;2.13;;;13.40;99.90;;;;;;5036860;28;20412;-88
2022/02/24 10:33:37;;;;;;;4.97;2.27;;;13.50;99.60;;;;;;5036222;28;20930;-89
2022/02/24 10:36:16;;;;;;;5.17;1.87;;;13.50;99.20;;;;;;5037520;28;20474;-89
2022/02/24 10:38:45;;;;;;;9.87;2.20;;;13.60;98.90;;;;;;5037262;28;20689;-88
2022/02/24 10:41:13;;;;;;;4.80;2.17;;;13.50;98.90;;;;;;5041743;28;20470;-88
2022/02/24 10:43:40;;;;;;;4.50;1.93;;;13.50;98.50;;;;;;5040253;28;20529;-89
2022/02/24 10:46:09;;;;;;;8.90;2.60;;;13.50;98.70;;;;;;5037063;28;20484;-88
2022/02/24 10:48:49;;;;;;;5.17;2.40;;;13.70;98.80;;;;;;5037741;28;20426;-88
2022/02/24 10:51:23;;;;;;;4.43;2.00;;;13.60;98.40;;;;;;5038095;28;20404;-88
2022/02/24 10:54:00;;;;;;;6.33;2.00;;;13.60;98.40;;;;;;5038409;28;20433;-88
2022/02/24 10:56:27;;;;;;;4.20;2.10;;;13.50;98.20;;;;;;5039217;28;20477;-88
2022/02/24 10:58:54;;;;;;;4.37;2.00;;;13.60;98.20;;;;;;5040067;28;20585;-88
2022/02/24 11:01:23;;;;;;;6.53;1.80;;;13.60;98.00;;;;;;5037223;28;20453;-88
2022/02/24 11:03:52;;;;;;;4.97;2.67;;;13.60;97.80;;;;;;5041510;28;20464;-88
2022/02/24 11:06:24;;;;;;;4.20;2.07;;;13.70;97.80;;;;;;5040268;28;20512;-89
2022/02/24 11:08:52;;;;;;;3.63;1.83;;;13.70;97.70;;;;;;5043638;28;20430;-88
2022/02/24 11:11:21;;;;;;;5.37;2.13;;;13.80;97.40;;;;;;5047307;28;20433;-89
2022/02/24 11:13:49;;;;;;;5.93;2.40;;;14.00;97.40;;;;;;5042874;28;20428;-88
2022/02/24 11:16:18;;;;;;;4.60;2.50;;;14.20;96.90;;;;;;5048478;28;20560;-89
2022/02/24 11:18:46;;;;;;;6.23;2.00;;;14.20;96.60;;;;;;5044220;28;20473;-89
2022/02/24 11:21:14;;;;;;;6.03;2.43;;;14.20;96.60;;;;;;5044439;28;20452;-88
2022/02/24 11:26:59;;;;;;;6.77;1.90;;;14.40;96.50;;;;;;5044127;28;20552;-89
2022/02/24 11:29:32;;;;;;;4.93;1.87;;;14.70;96.20;;;;;;5046324;28;20423;-88
2022/02/24 11:32:06;;;;;;;5.57;1.70;;;14.80;95.40;;;;;;5047288;28;20504;-88
2022/02/24 11:35:10;;;;;;;4.33;1.40;;;14.90;94.80;;;;;;5047236;28;20424;-88
2022/02/24 11:37:40;;;;;;;4.87;2.03;;;14.80;94.00;;;;;;5040272;28;20992;-89
2022/02/24 11:40:10;;;;;;;5.07;2.40;;;14.90;93.90;;;;;;5042280;28;20466;-89
2022/02/24 11:42:41;;;;;;;4.43;2.50;;;15.00;93.60;;;;;;5050162;28;20459;-88
2022/02/24 11:45:37;;;;;;;4.13;1.93;;;15.00;93.60;;;;;;5041752;28;20421;-89
2022/02/24 11:48:07;;;;;;;3.00;1.37;;;15.10;92.90;;;;;;5042108;28;20457;-88
2022/02/24 11:50:36;;;;;;;4.53;1.83;;;15.30;92.80;;;;;;5046134;28;20417;-88
2022/02/24 11:53:06;;;;;;;3.93;1.57;;;15.10;91.60;;;;;;5041203;28;20511;-88
2022/02/24 11:55:54;;;;;;;4.73;1.70;;;15.30;91.40;;;;;;5046742;28;20416;-88
2022/02/24 11:58:53;;;;;;;4.60;2.30;;;15.40;91.00;;;;;;5040659;28;20435;-88
2022/02/24 12:01:42;;;;;;;5.50;1.83;;;15.30;90.40;;;;;;5038862;28;20439;-88
2022/02/24 12:04:21;;;;;;;4.43;1.63;;;15.10;90.40;;;;;;5053002;28;20548;-88
2022/02/24 12:07:11;;;;;;;4.80;1.60;;;14.90;89.80;;;;;;5042446;28;20816;-88
2022/02/24 12:09:39;;;;;;;5.00;1.97;;;14.90;90.00;;;;;;5043845;28;20445;-88
2022/02/24 12:12:11;;;;;;;3.33;1.20;;;14.90;89.60;;;;;;5045931;28;20486;-88
2022/02/24 12:14:57;;;;;;;6.33;2.53;;;14.90;89.50;;;;;;5048758;28;20409;-88
2022/02/24 12:17:27;;;;;;;5.23;2.07;;;15.00;89.60;;;;;;5057578;28;20504;-89
2022/02/24 12:19:59;;;;;;;4.33;2.13;;;15.00;89.80;;;;;;5055938;28;20537;-87
2022/02/24 12:22:32;;;;;;;4.60;1.90;;;15.10;89.10;;;;;;5057622;28;20457;-88
2022/02/24 12:25:21;;;;;;;5.67;2.23;;;15.20;89.10;;;;;;5057899;28;20416;-89
2022/02/24 12:27:59;;;;;;;9.20;2.47;;;15.30;88.50;;;;;;5050429;28;20482;-87
2022/02/24 12:30:31;;;;;;;6.43;2.53;;;15.40;88.60;;;;;;5054462;28;20511;-88
2022/02/24 12:33:07;;;;;;;8.37;1.97;;;15.50;88.30;;;;;;5049720;28;20439;-88
2022/02/24 12:35:36;;;;;;;4.03;1.80;;;15.60;87.50;;;;;;5053157;28;20433;-89
2022/02/24 12:38:05;;;;;;;3.93;1.80;;;15.50;87.10;;;;;;5053628;28;20863;-88
2022/02/24 12:40:33;;;;;;;7.83;2.20;;;15.40;87.10;;;;;;5048358;28;20464;-89
2022/02/24 12:43:02;;;;;;;7.10;2.27;;;15.30;87.10;;;;;;5049635;28;20521;-88
2022/02/24 12:45:32;;;;;;;6.90;2.00;;;15.20;87.00;;;;;;5047948;28;20412;-89
2022/02/24 12:48:01;;;;;;;3.30;1.60;;;15.10;87.40;;;;;;5055457;28;20418;-89
2022/02/24 12:50:33;;;;;;;5.80;1.67;;;15.10;87.80;;;;;;5049477;28;20445;-88
2022/02/24 12:53:08;;;;;;;4.80;1.67;;;15.10;87.80;;;;;;5049224;28;20494;-90
2022/02/24 12:55:35;;;;;;;4.90;1.77;;;15.00;88.50;;;;;;5041465;28;20473;-89
2022/02/24 12:58:02;;;;;;;4.97;1.90;;;15.00;87.80;;;;;;5042970;28;20450;-89
2022/02/24 13:00:36;;;;;;;6.17;1.87;;;15.10;88.10;;;;;;5052448;28;20574;-88
2022/02/24 13:03:04;;;;;;;4.83;1.60;;;15.20;88.00;;;;;;5048442;28;20460;-87
2022/02/24 13:05:33;;;;;;;5.03;2.10;;;15.30;87.60;;;;;;5055739;28;20432;-88
2022/02/24 13:10:58;;;;;;;4.07;1.63;;;15.10;87.30;;;;;;5046332;28;20433;-88